Map

Track Data

SID SEASON NUMBER BASIN SUBBASIN NAME ISO_TIME NATURE LAT LON WMO_WIND WMO_PRES WMO_AGENCY TRACK_TYPE DIST2LAND LANDFALL IFLAG USA_AGENCY USA_ATCF_ID USA_LAT USA_LON USA_RECORD USA_STATUS USA_WIND USA_PRES USA_SSHS USA_R34_NE USA_R34_SE USA_R34_SW USA_R34_NW USA_R50_NE USA_R50_SE USA_R50_SW USA_R50_NW USA_R64_NE USA_R64_SE USA_R64_SW USA_R64_NW USA_POCI USA_ROCI USA_RMW USA_EYE TOKYO_LAT TOKYO_LON TOKYO_GRADE TOKYO_WIND TOKYO_PRES TOKYO_R50_DIR TOKYO_R50_LONG TOKYO_R50_SHORT TOKYO_R30_DIR TOKYO_R30_LONG TOKYO_R30_SHORT TOKYO_LAND CMA_LAT CMA_LON CMA_CAT CMA_WIND CMA_PRES HKO_LAT HKO_LON HKO_CAT HKO_WIND HKO_PRES NEWDELHI_LAT NEWDELHI_LON NEWDELHI_GRADE NEWDELHI_WIND NEWDELHI_PRES NEWDELHI_CI NEWDELHI_DP NEWDELHI_POCI REUNION_LAT REUNION_LON REUNION_TYPE REUNION_WIND REUNION_PRES REUNION_TNUM REUNION_CI REUNION_RMW REUNION_R34_NE REUNION_R34_SE REUNION_R34_SW REUNION_R34_NW REUNION_R50_NE REUNION_R50_SE REUNION_R50_SW REUNION_R50_NW REUNION_R64_NE REUNION_R64_SE REUNION_R64_SW REUNION_R64_NW BOM_LAT BOM_LON BOM_TYPE BOM_WIND BOM_PRES BOM_TNUM BOM_CI BOM_RMW BOM_R34_NE BOM_R34_SE BOM_R34_SW BOM_R34_NW BOM_R50_NE BOM_R50_SE BOM_R50_SW BOM_R50_NW BOM_R64_NE BOM_R64_SE BOM_R64_SW BOM_R64_NW BOM_ROCI BOM_POCI BOM_EYE BOM_POS_METHOD BOM_PRES_METHOD NADI_LAT NADI_LON NADI_CAT NADI_WIND NADI_PRES WELLINGTON_LAT WELLINGTON_LON WELLINGTON_WIND WELLINGTON_PRES DS824_LAT DS824_LON DS824_STAGE DS824_WIND DS824_PRES TD9636_LAT TD9636_LON TD9636_STAGE TD9636_WIND TD9636_PRES TD9635_LAT TD9635_LON TD9635_WIND TD9635_PRES TD9635_ROCI NEUMANN_LAT NEUMANN_LON NEUMANN_CLASS NEUMANN_WIND NEUMANN_PRES MLC_LAT MLC_LON MLC_CLASS MLC_WIND MLC_PRES USA_GUST BOM_GUST BOM_GUST_PER REUNION_GUST REUNION_GUST_PER USA_SEAHGT USA_SEARAD_NE USA_SEARAD_SE USA_SEARAD_SW USA_SEARAD_NW STORM_SPEED STORM_DIR
1907176N16282 1907 28 NA CS NOT_NAMED 1907-06-24 12:00:00 TS 16.0000 -78.0000 35 hurdat_atl main 208 208 O_____________ hurdat_atl AL011907 16.0000 -78.0000 TS 35 0 8 275
1907176N16282 1907 28 NA CS NOT_NAMED 1907-06-24 15:00:00 TS 16.0301 -78.3901 main 225 218 P_____________ AL011907 16.0301 -78.3901 TS 35 0 8 277
1907176N16282 1907 28 NA CS NOT_NAMED 1907-06-24 18:00:00 TS 16.1000 -78.8000 35 hurdat_atl main 232 232 O_____________ hurdat_atl AL011907 16.1000 -78.8000 TS 35 0 8 284
1907176N16282 1907 28 NA CS NOT_NAMED 1907-06-24 21:00:00 TS 16.2350 -79.2425 main 239 233 P_____________ AL011907 16.2350 -79.2425 TS 35 0 9 289
1907176N16282 1907 28 NA CS NOT_NAMED 1907-06-25 00:00:00 TS 16.4000 -79.7000 35 hurdat_atl main 244 244 O_____________ hurdat_atl AL011907 16.4000 -79.7000 TS 35 0 9 290
1907176N16282 1907 28 NA CS NOT_NAMED 1907-06-25 03:00:00 TS 16.5499 -80.1501 main 269 261 P_____________ AL011907 16.5499 -80.1501 TS 35 0 9 289
1907176N16282 1907 28 NA CS NOT_NAMED 1907-06-25 06:00:00 TS 16.7000 -80.6000 35 hurdat_atl main 287 287 O_____________ hurdat_atl AL011907 16.7000 -80.6000 TS 35 0 9 287
1907176N16282 1907 28 NA CS NOT_NAMED 1907-06-25 09:00:00 TS 16.8199 -81.0503 main 293 278 P_____________ AL011907 16.8199 -81.0503 TS 35 0 9 289
1907176N16282 1907 28 NA CS NOT_NAMED 1907-06-25 12:00:00 TS 17.0000 -81.5000 35 hurdat_atl main 278 266 O_____________ hurdat_atl AL011907 17.0000 -81.5000 TS 35 0 10 300
1907176N16282 1907 28 NA CS NOT_NAMED 1907-06-25 15:00:00 TS 17.3049 -81.9426 main 275 269 P_____________ AL011907 17.3049 -81.9426 TS 35 0 11 309
1907176N16282 1907 28 NA CS NOT_NAMED 1907-06-25 18:00:00 TS 17.7000 -82.4000 35 hurdat_atl main 288 284 O_____________ hurdat_atl AL011907 17.7000 -82.4000 TS 35 0 12 312
1907176N16282 1907 28 NA CS NOT_NAMED 1907-06-25 21:00:00 TS 18.1275 -82.9001 main 297 297 P_____________ AL011907 18.1275 -82.9001 TS 35 0 13 313
1907176N16282 1907 28 NA CS NOT_NAMED 1907-06-26 00:00:00 TS 18.6000 -83.4000 35 hurdat_atl main 319 277 O_____________ hurdat_atl AL011907 18.6000 -83.4000 TS 35 0 13 317
1907176N16282 1907 28 NA CS NOT_NAMED 1907-06-26 03:00:00 TS 19.0923 -83.8503 main 281 246 P_____________ AL011907 19.0923 -83.8503 TS 35 0 13 320
1907176N16282 1907 28 NA CS NOT_NAMED 1907-06-26 06:00:00 TS 19.6000 -84.3000 35 hurdat_atl main 246 190 O_____________ hurdat_atl AL011907 19.6000 -84.3000 TS 35 0 13 318
1907176N16282 1907 28 NA CS NOT_NAMED 1907-06-26 09:00:00 TS 20.0850 -84.8003 main 190 143 P_____________ AL011907 20.0850 -84.8003 TS 37 0 14 317
1907176N16282 1907 28 NA CS NOT_NAMED 1907-06-26 12:00:00 TS 20.6000 -85.3000 40 hurdat_atl main 143 103 O_____________ hurdat_atl AL011907 20.6000 -85.3000 TS 40 0 14 321
1907176N16282 1907 28 NA CS NOT_NAMED 1907-06-26 15:00:00 TS 21.1923 -85.7577 main 93 76 P_____________ AL011907 21.1923 -85.7577 TS 40 0 15 325
1907176N16282 1907 28 NA GM NOT_NAMED 1907-06-26 18:00:00 TS 21.8000 -86.2000 40 hurdat_atl main 83 83 O_____________ hurdat_atl AL011907 21.8000 -86.2000 TS 40 0 14 325
1907176N16282 1907 28 NA GM NOT_NAMED 1907-06-26 21:00:00 TS 22.3574 -86.6504 main 105 105 P_____________ AL011907 22.3574 -86.6504 TS 42 0 14 323
1907176N16282 1907 28 NA GM NOT_NAMED 1907-06-27 00:00:00 TS 22.9000 -87.1000 45 hurdat_atl main 156 156 O_____________ hurdat_atl AL011907 22.9000 -87.1000 TS 45 0 14 323
1907176N16282 1907 28 NA GM NOT_NAMED 1907-06-27 03:00:00 TS 23.4424 -87.5505 main 212 212 P_____________ AL011907 23.4424 -87.5505 TS 45 0 14 323
1907176N16282 1907 28 NA GM NOT_NAMED 1907-06-27 06:00:00 TS 24.0000 -88.0000 45 hurdat_atl main 279 279 O_____________ hurdat_atl AL011907 24.0000 -88.0000 TS 45 0 14 324
1907176N16282 1907 28 NA GM NOT_NAMED 1907-06-27 09:00:00 TS 24.6076 -88.4798 main 346 346 P_____________ AL011907 24.6076 -88.4798 TS 45 0 15 326
1907176N16282 1907 28 NA GM NOT_NAMED 1907-06-27 12:00:00 TS 25.2000 -88.9000 45 hurdat_atl main 414 368 O_____________ hurdat_atl AL011907 25.2000 -88.9000 TS 45 0 13 330
1907176N16282 1907 28 NA GM NOT_NAMED 1907-06-27 15:00:00 TS 25.7298 -89.2029 main 368 314 P_____________ AL011907 25.7298 -89.2029 TS 45 0 11 336
1907176N16282 1907 28 NA GM NOT_NAMED 1907-06-27 18:00:00 TS 26.2000 -89.4000 45 hurdat_atl main 314 270 O_____________ hurdat_atl AL011907 26.2000 -89.4000 TS 45 0 10 341
1907176N16282 1907 28 NA GM NOT_NAMED 1907-06-27 21:00:00 TS 26.6299 -89.5526 main 272 228 P_____________ AL011907 26.6299 -89.5526 TS 45 0 8 347
1907176N16282 1907 28 NA GM NOT_NAMED 1907-06-28 00:00:00 TS 27.0000 -89.6000 45 hurdat_atl main 228 196 O_____________ hurdat_atl AL011907 27.0000 -89.6000 TS 45 0 7 0
1907176N16282 1907 28 NA GM NOT_NAMED 1907-06-28 03:00:00 TS 27.3075 -89.5450 main 193 159 P_____________ AL011907 27.3075 -89.5450 TS 45 0 6 16
1907176N16282 1907 28 NA GM NOT_NAMED 1907-06-28 06:00:00 TS 27.6000 -89.4000 45 hurdat_atl main 159 124 O_____________ hurdat_atl AL011907 27.6000 -89.4000 TS 45 0 7 21
1907176N16282 1907 28 NA GM NOT_NAMED 1907-06-28 09:00:00 TS 27.9196 -89.2741 main 124 78 P_____________ AL011907 27.9196 -89.2741 TS 47 0 8 27
1907176N16282 1907 28 NA GM NOT_NAMED 1907-06-28 12:00:00 TS 28.3000 -89.0000 50 hurdat_atl main 78 53 O_____________ hurdat_atl AL011907 28.3000 -89.0000 TS 50 0 11 37
1907176N16282 1907 28 NA GM NOT_NAMED 1907-06-28 15:00:00 TS 28.7606 -88.5462 main 59 59 P_____________ AL011907 28.7606 -88.5462 TS 50 0 15 46
1907176N16282 1907 28 NA GM NOT_NAMED 1907-06-28 18:00:00 TS 29.3000 -87.8000 50 hurdat_atl main 102 44 O_____________ hurdat_atl AL011907 29.3000 -87.8000 TS 50 0 22 54
1907176N16282 1907 28 NA GM NOT_NAMED 1907-06-28 21:00:00 TS 30.0361 -86.5041 main 45 0 P_____________ AL011907 30.0361 -86.5041 TS 50 0 23 59
1907176N16282 1907 28 NA NA NOT_NAMED 1907-06-28 23:00:00 TS 30.3000 -85.9000 50 hurdat_atl main 0 0 O_____________ hurdat_atl AL011907 30.3000 -85.9000 L TS 50 0 13 67
1907176N16282 1907 28 NA GM NOT_NAMED 1907-06-29 00:00:00 TS 30.3000 -85.8000 50 hurdat_atl main 0 0 O_____________ hurdat_atl AL011907 30.3000 -85.8000 TS 50 0 13 80
1907176N16282 1907 28 NA NA NOT_NAMED 1907-06-29 03:00:00 TS 30.4535 -84.9030 main 0 0 P_____________ AL011907 30.4535 -84.9030 TS 47 0 20 76
1907176N16282 1907 28 NA NA NOT_NAMED 1907-06-29 06:00:00 TS 30.8000 -83.5000 45 hurdat_atl main 0 0 O_____________ hurdat_atl AL011907 30.8000 -83.5000 TS 45 0 24 73
1907176N16282 1907 28 NA NA NOT_NAMED 1907-06-29 09:00:00 TS 31.1719 -82.1835 main 0 0 P_____________ AL011907 31.1719 -82.1835 TS 50 0 25 67
1907176N16282 1907 28 NA NA NOT_NAMED 1907-06-29 12:00:00 TS 31.8000 -80.8000 55 hurdat_atl main 14 14 O_____________ hurdat_atl AL011907 31.8000 -80.8000 TS 55 0 29 56
1907176N16282 1907 28 NA NA NOT_NAMED 1907-06-29 15:00:00 TS 32.7882 -79.3497 main 24 0 P_____________ AL011907 32.7882 -79.3497 TS 52 0 32 47
1907176N16282 1907 28 NA NA NOT_NAMED 1907-06-29 18:00:00 ET 34.0000 -78.0000 50 hurdat_atl main 0 0 O_____________ hurdat_atl AL011907 34.0000 -78.0000 EX 50 -4 31 39
1907176N16282 1907 28 NA NA NOT_NAMED 1907-06-29 21:00:00 ET 35.2087 -76.9845 main 0 0 P_____________ AL011907 35.2087 -76.9845 EX 47 -4 30 33
1907176N16282 1907 28 NA NA NOT_NAMED 1907-06-30 00:00:00 ET 36.5000 -76.0000 45 hurdat_atl main 8 0 O_____________ hurdat_atl AL011907 36.5000 -76.0000 EX 45 -4 32 35
1907176N16282 1907 28 NA NA NOT_NAMED 1907-06-30 03:00:00 ET 37.8275 -74.7074 main 62 54 P_____________ AL011907 37.8275 -74.7074 EX 42 -4 34 38
1907176N16282 1907 28 NA NA NOT_NAMED 1907-06-30 06:00:00 ET 39.2000 -73.3000 40 hurdat_atl main 92 60 O_____________ hurdat_atl AL011907 39.2000 -73.3000 EX 40 -4 35 38
1907176N16282 1907 28 NA NA NOT_NAMED 1907-06-30 09:00:00 ET 40.5757 -71.9155 main 62 0 P_____________ AL011907 40.5757 -71.9155 EX 37 -4 35 37
1907176N16282 1907 28 NA NA NOT_NAMED 1907-06-30 12:00:00 ET 42.0000 -70.5000 35 hurdat_atl main 8 8 O_____________ hurdat_atl AL011907 42.0000 -70.5000 EX 35 -4 36 36
1907176N16282 1907 28 NA NA NOT_NAMED 1907-06-30 15:00:00 ET 43.4865 -69.0342 main 47 0 P_____________ AL011907 43.4865 -69.0342 EX 32 -4 37 36
1907176N16282 1907 28 NA NA NOT_NAMED 1907-06-30 18:00:00 ET 45.0000 -67.5000 30 hurdat_atl main 0 O_____________ hurdat_atl AL011907 45.0000 -67.5000 EX 30 -4 37 36

About IBTrACS Database

This database is a web-friendly format of International Best Track Archive for Climate Stewardship (IBTrACS), a global best track data archive curated by NOAA dating back to 1842.

Updated: 2021-10-25